This is the latest recevied weather packets stored in our database for station/object KO6HRZ. If no packets are shown the sender has not sent any weather packets the latest 10 day(s).
| Time | Temp. | Humidity | Pressure | Rain* | Wind** | Luminosity | Snow |
|---|---|---|---|---|---|---|---|
| 1777854723 | 18.89° C | 61% | 1012.1 hPa | 0 mm | - | 129 W/m² | - |
| 1777854122 | 19.44° C | 60% | 1012.1 hPa | 0 mm | - | 167 W/m² | - |
| 1777853522 | 20° C | 59% | 1012.2 hPa | 0 mm | - | 205 W/m² | - |
| 1777852922 | 20.56° C | 57% | 1012.1 hPa | 0 mm | - | 226 W/m² | - |
| 1777852323 | 21.11° C | 56% | 1012.2 hPa | 0 mm | - | 347 W/m² | - |
| 1777851719 | 20.56° C | 58% | 1012.4 hPa | 0 mm | - | 384 W/m² | - |
| 1777851117 | 21.11° C | 55% | 1012.3 hPa | 0 mm | - | 380 W/m² | - |
| 1777850511 | 21.11° C | 56% | 1012.3 hPa | 0 mm | - | 285 W/m² | - |
| 1777849911 | 20.56° C | 57% | 1012 hPa | 0 mm | - | 315 W/m² | - |
| 1777849311 | 21.11° C | 56% | 1012 hPa | 0 mm | - | 288 W/m² | - |
| 1777848708 | 21.67° C | 55% | 1012 hPa | 0 mm | - | 357 W/m² | - |
| 1777848109 | 21.67° C | 55% | 1012.1 hPa | 0 mm | - | 385 W/m² | - |
| 1777847509 | 22.22° C | 52% | 1012 hPa | 0 mm | - | 374 W/m² | - |
| 1777846903 | 22.22° C | 53% | 1012.2 hPa | 0 mm | - | 442 W/m² | - |
| 1777846299 | 22.78° C | 52% | 1012.1 hPa | 0 mm | - | 425 W/m² | - |
| 1777845698 | 22.78° C | 52% | 1012.3 hPa | 0 mm | - | 742 W/m² | - |
| 1777845097 | 22.22° C | 53% | 1012.4 hPa | 0 mm | - | 828 W/m² | - |
| 1777844497 | 22.78° C | 54% | 1012.2 hPa | 0 mm | - | 887 W/m² | - |
| 1777843893 | 22.22° C | 56% | 1012.4 hPa | 0 mm | - | 831 W/m² | - |
| 1777843288 | 22.78° C | 54% | 1012.2 hPa | 0 mm | - | 753 W/m² | - |
| 1777842687 | 21.67° C | 58% | 1012.7 hPa | 0 mm | - | 623 W/m² | - |
| 1777842086 | 21.67° C | 58% | 1012.8 hPa | 0 mm | - | 751 W/m² | - |
| 1777841484 | 20.56° C | 59% | 1012.9 hPa | 0 mm | - | 821 W/m² | - |
| 1777840885 | 20.56° C | 60% | 1012.9 hPa | 0 mm | - | 535 W/m² | - |
| 1777840279 | 20.56° C | 59% | 1013.1 hPa | 0 mm | - | 629 W/m² | - |
* Rain latest hour (hover to see other rain measurements)
** Current wind speed in m/s (hover to see current wind gust speed)